sensor_id;sensor_type;location;lat;lon;timestamp;P1;durP1;ratioP1;P2;durP2;ratioP2
79308;SDS011;68767;53.078;7.386;2023-08-06T00:00:57;30.75;;;16.33;;
79308;SDS011;68767;53.078;7.386;2023-08-06T00:03:27;31.70;;;15.95;;
79308;SDS011;68767;53.078;7.386;2023-08-06T00:05:54;32.45;;;16.02;;
79308;SDS011;68767;53.078;7.386;2023-08-06T00:08:21;28.00;;;16.45;;
79308;SDS011;68767;53.078;7.386;2023-08-06T00:10:48;31.95;;;15.45;;
79308;SDS011;68767;53.078;7.386;2023-08-06T00:13:15;25.63;;;14.82;;
79308;SDS011;68767;53.078;7.386;2023-08-06T00:15:42;29.20;;;15.25;;
79308;SDS011;68767;53.078;7.386;2023-08-06T00:18:09;32.08;;;15.80;;
79308;SDS011;68767;53.078;7.386;2023-08-06T00:20:38;32.55;;;15.35;;
79308;SDS011;68767;53.078;7.386;2023-08-06T00:23:07;29.77;;;15.82;;
79308;SDS011;68767;53.078;7.386;2023-08-06T00:25:35;35.60;;;16.90;;
79308;SDS011;68767;53.078;7.386;2023-08-06T00:28:02;28.33;;;15.38;;
79308;SDS011;68767;53.078;7.386;2023-08-06T00:30:29;31.63;;;17.42;;
79308;SDS011;68767;53.078;7.386;2023-08-06T00:32:56;39.40;;;16.02;;
79308;SDS011;68767;53.078;7.386;2023-08-06T00:35:23;35.17;;;15.73;;
79308;SDS011;68767;53.078;7.386;2023-08-06T00:37:50;31.52;;;16.10;;
79308;SDS011;68767;53.078;7.386;2023-08-06T00:40:19;36.80;;;18.80;;
79308;SDS011;68767;53.078;7.386;2023-08-06T00:42:49;32.25;;;17.02;;
79308;SDS011;68767;53.078;7.386;2023-08-06T00:45:16;36.58;;;16.08;;
79308;SDS011;68767;53.078;7.386;2023-08-06T00:47:44;30.85;;;16.60;;
79308;SDS011;68767;53.078;7.386;2023-08-06T00:50:12;35.72;;;17.45;;
79308;SDS011;68767;53.078;7.386;2023-08-06T00:52:39;26.30;;;16.02;;
79308;SDS011;68767;53.078;7.386;2023-08-06T00:55:07;25.65;;;14.40;;
79308;SDS011;68767;53.078;7.386;2023-08-06T00:57:36;28.88;;;14.88;;
79308;SDS011;68767;53.078;7.386;2023-08-06T01:00:03;28.60;;;15.10;;
79308;SDS011;68767;53.078;7.386;2023-08-06T01:02:31;31.45;;;16.48;;
79308;SDS011;68767;53.078;7.386;2023-08-06T01:04:58;36.80;;;16.70;;
79308;SDS011;68767;53.078;7.386;2023-08-06T01:12:25;28.50;;;15.20;;
79308;SDS011;68767;53.078;7.386;2023-08-06T01:17:26;32.30;;;16.15;;
79308;SDS011;68767;53.078;7.386;2023-08-06T01:19:54;33.80;;;15.48;;
79308;SDS011;68767;53.078;7.386;2023-08-06T01:22:21;33.33;;;16.23;;
79308;SDS011;68767;53.078;7.386;2023-08-06T01:24:49;30.75;;;15.18;;
79308;SDS011;68767;53.078;7.386;2023-08-06T01:27:21;26.52;;;15.10;;
79308;SDS011;68767;53.078;7.386;2023-08-06T01:29:56;25.70;;;13.63;;
79308;SDS011;68767;53.078;7.386;2023-08-06T01:32:31;34.63;;;16.27;;
79308;SDS011;68767;53.078;7.386;2023-08-06T01:35:02;25.65;;;14.77;;
79308;SDS011;68767;53.078;7.386;2023-08-06T01:37:30;26.98;;;15.02;;
79308;SDS011;68767;53.078;7.386;2023-08-06T01:39:58;26.20;;;14.35;;
79308;SDS011;68767;53.078;7.386;2023-08-06T01:42:25;23.80;;;14.75;;
79308;SDS011;68767;53.078;7.386;2023-08-06T01:44:51;29.67;;;14.55;;
79308;SDS011;68767;53.078;7.386;2023-08-06T01:47:18;26.73;;;13.80;;
79308;SDS011;68767;53.078;7.386;2023-08-06T01:49:45;25.33;;;13.55;;
79308;SDS011;68767;53.078;7.386;2023-08-06T01:52:12;28.80;;;14.95;;
79308;SDS011;68767;53.078;7.386;2023-08-06T01:54:39;26.50;;;15.13;;
79308;SDS011;68767;53.078;7.386;2023-08-06T01:57:06;30.13;;;14.60;;
79308;SDS011;68767;53.078;7.386;2023-08-06T01:59:33;21.20;;;13.27;;
79308;SDS011;68767;53.078;7.386;2023-08-06T02:02:01;25.25;;;14.07;;
79308;SDS011;68767;53.078;7.386;2023-08-06T02:04:28;25.35;;;14.32;;
79308;SDS011;68767;53.078;7.386;2023-08-06T02:06:55;24.75;;;13.50;;
79308;SDS011;68767;53.078;7.386;2023-08-06T02:09:22;25.75;;;13.90;;
79308;SDS011;68767;53.078;7.386;2023-08-06T02:11:48;24.58;;;14.65;;
79308;SDS011;68767;53.078;7.386;2023-08-06T02:14:16;24.27;;;12.80;;
79308;SDS011;68767;53.078;7.386;2023-08-06T02:16:43;25.45;;;12.70;;
79308;SDS011;68767;53.078;7.386;2023-08-06T02:19:13;23.58;;;12.50;;
79308;SDS011;68767;53.078;7.386;2023-08-06T02:21:40;22.35;;;11.65;;
79308;SDS011;68767;53.078;7.386;2023-08-06T02:24:06;30.45;;;12.10;;
79308;SDS011;68767;53.078;7.386;2023-08-06T02:26:33;27.20;;;12.20;;
79308;SDS011;68767;53.078;7.386;2023-08-06T02:29:00;23.80;;;13.07;;
79308;SDS011;68767;53.078;7.386;2023-08-06T02:31:27;22.38;;;11.38;;
79308;SDS011;68767;53.078;7.386;2023-08-06T02:33:54;22.52;;;13.02;;
79308;SDS011;68767;53.078;7.386;2023-08-06T02:36:21;21.90;;;11.82;;
79308;SDS011;68767;53.078;7.386;2023-08-06T02:38:48;22.52;;;12.50;;
79308;SDS011;68767;53.078;7.386;2023-08-06T02:41:15;28.00;;;13.05;;
79308;SDS011;68767;53.078;7.386;2023-08-06T02:43:42;23.75;;;11.70;;
79308;SDS011;68767;53.078;7.386;2023-08-06T02:46:09;31.15;;;13.00;;
79308;SDS011;68767;53.078;7.386;2023-08-06T02:48:36;23.17;;;12.80;;
79308;SDS011;68767;53.078;7.386;2023-08-06T02:51:03;28.15;;;13.07;;
79308;SDS011;68767;53.078;7.386;2023-08-06T02:53:32;29.33;;;12.65;;
79308;SDS011;68767;53.078;7.386;2023-08-06T02:56:03;22.88;;;12.25;;
79308;SDS011;68767;53.078;7.386;2023-08-06T02:58:42;26.77;;;13.05;;
79308;SDS011;68767;53.078;7.386;2023-08-06T03:01:29;24.85;;;12.85;;
79308;SDS011;68767;53.078;7.386;2023-08-06T03:04:03;24.27;;;12.63;;
79308;SDS011;68767;53.078;7.386;2023-08-06T03:06:35;22.80;;;12.68;;
79308;SDS011;68767;53.078;7.386;2023-08-06T03:09:02;24.05;;;12.52;;
79308;SDS011;68767;53.078;7.386;2023-08-06T03:11:29;26.98;;;13.77;;
79308;SDS011;68767;53.078;7.386;2023-08-06T03:14:03;34.75;;;13.65;;
79308;SDS011;68767;53.078;7.386;2023-08-06T03:16:30;25.75;;;13.40;;
79308;SDS011;68767;53.078;7.386;2023-08-06T03:18:58;22.55;;;11.60;;
79308;SDS011;68767;53.078;7.386;2023-08-06T03:21:25;24.83;;;12.18;;
79308;SDS011;68767;53.078;7.386;2023-08-06T03:23:52;26.40;;;12.57;;
79308;SDS011;68767;53.078;7.386;2023-08-06T03:26:23;23.98;;;12.07;;
79308;SDS011;68767;53.078;7.386;2023-08-06T03:28:50;25.00;;;13.27;;
79308;SDS011;68767;53.078;7.386;2023-08-06T03:31:18;22.77;;;11.32;;
79308;SDS011;68767;53.078;7.386;2023-08-06T03:33:45;26.55;;;11.40;;
79308;SDS011;68767;53.078;7.386;2023-08-06T03:36:15;20.70;;;11.25;;
79308;SDS011;68767;53.078;7.386;2023-08-06T03:38:42;20.80;;;12.13;;
79308;SDS011;68767;53.078;7.386;2023-08-06T03:41:11;20.33;;;12.20;;
79308;SDS011;68767;53.078;7.386;2023-08-06T03:43:38;24.55;;;12.30;;
79308;SDS011;68767;53.078;7.386;2023-08-06T03:46:10;23.75;;;11.63;;
79308;SDS011;68767;53.078;7.386;2023-08-06T03:48:37;25.73;;;12.80;;
79308;SDS011;68767;53.078;7.386;2023-08-06T03:51:04;22.08;;;11.43;;
79308;SDS011;68767;53.078;7.386;2023-08-06T03:53:31;27.40;;;12.60;;
79308;SDS011;68767;53.078;7.386;2023-08-06T03:55:58;21.77;;;11.35;;
79308;SDS011;68767;53.078;7.386;2023-08-06T03:58:29;24.05;;;12.75;;
79308;SDS011;68767;53.078;7.386;2023-08-06T04:01:00;24.38;;;11.52;;
79308;SDS011;68767;53.078;7.386;2023-08-06T04:03:34;19.95;;;10.50;;
79308;SDS011;68767;53.078;7.386;2023-08-06T04:06:02;22.02;;;11.98;;
79308;SDS011;68767;53.078;7.386;2023-08-06T04:08:29;19.63;;;10.75;;
79308;SDS011;68767;53.078;7.386;2023-08-06T04:10:56;22.98;;;11.77;;
79308;SDS011;68767;53.078;7.386;2023-08-06T04:13:23;21.95;;;11.95;;
79308;SDS011;68767;53.078;7.386;2023-08-06T04:15:50;22.15;;;11.07;;
79308;SDS011;68767;53.078;7.386;2023-08-06T04:18:18;23.65;;;12.65;;
79308;SDS011;68767;53.078;7.386;2023-08-06T04:20:45;20.15;;;11.98;;
79308;SDS011;68767;53.078;7.386;2023-08-06T04:23:13;23.77;;;13.05;;
79308;SDS011;68767;53.078;7.386;2023-08-06T04:25:41;25.45;;;12.90;;
79308;SDS011;68767;53.078;7.386;2023-08-06T04:28:08;21.25;;;12.05;;
79308;SDS011;68767;53.078;7.386;2023-08-06T04:30:36;20.80;;;12.38;;
79308;SDS011;68767;53.078;7.386;2023-08-06T04:33:04;25.23;;;12.02;;
79308;SDS011;68767;53.078;7.386;2023-08-06T04:35:32;21.55;;;11.95;;
79308;SDS011;68767;53.078;7.386;2023-08-06T04:38:00;25.15;;;11.48;;
79308;SDS011;68767;53.078;7.386;2023-08-06T04:40:27;21.65;;;13.55;;
79308;SDS011;68767;53.078;7.386;2023-08-06T04:42:54;21.63;;;13.07;;
79308;SDS011;68767;53.078;7.386;2023-08-06T04:45:20;23.20;;;12.00;;
79308;SDS011;68767;53.078;7.386;2023-08-06T04:47:50;24.67;;;13.07;;
79308;SDS011;68767;53.078;7.386;2023-08-06T04:50:17;26.58;;;13.75;;
79308;SDS011;68767;53.078;7.386;2023-08-06T04:52:45;24.52;;;13.38;;
79308;SDS011;68767;53.078;7.386;2023-08-06T04:55:12;24.23;;;12.25;;
79308;SDS011;68767;53.078;7.386;2023-08-06T04:57:39;23.10;;;12.80;;
79308;SDS011;68767;53.078;7.386;2023-08-06T05:00:06;28.60;;;13.15;;
79308;SDS011;68767;53.078;7.386;2023-08-06T05:02:33;23.85;;;12.43;;
79308;SDS011;68767;53.078;7.386;2023-08-06T05:05:01;24.95;;;12.52;;
79308;SDS011;68767;53.078;7.386;2023-08-06T05:07:28;22.67;;;12.52;;
79308;SDS011;68767;53.078;7.386;2023-08-06T05:09:55;27.08;;;12.93;;
79308;SDS011;68767;53.078;7.386;2023-08-06T05:12:22;22.80;;;12.63;;
79308;SDS011;68767;53.078;7.386;2023-08-06T05:14:49;25.20;;;11.73;;
79308;SDS011;68767;53.078;7.386;2023-08-06T05:17:15;22.08;;;12.20;;
79308;SDS011;68767;53.078;7.386;2023-08-06T05:19:42;26.20;;;12.98;;
79308;SDS011;68767;53.078;7.386;2023-08-06T05:22:09;30.75;;;13.93;;
79308;SDS011;68767;53.078;7.386;2023-08-06T05:24:36;29.05;;;13.75;;
79308;SDS011;68767;53.078;7.386;2023-08-06T05:27:03;33.42;;;15.23;;
79308;SDS011;68767;53.078;7.386;2023-08-06T05:29:30;25.80;;;13.40;;
79308;SDS011;68767;53.078;7.386;2023-08-06T05:31:57;28.13;;;14.85;;
79308;SDS011;68767;53.078;7.386;2023-08-06T05:34:24;29.65;;;15.60;;
79308;SDS011;68767;53.078;7.386;2023-08-06T05:36:51;27.38;;;14.18;;
79308;SDS011;68767;53.078;7.386;2023-08-06T05:39:19;31.70;;;15.90;;
79308;SDS011;68767;53.078;7.386;2023-08-06T05:41:46;27.10;;;14.63;;
79308;SDS011;68767;53.078;7.386;2023-08-06T05:44:13;29.52;;;14.75;;
79308;SDS011;68767;53.078;7.386;2023-08-06T05:46:39;22.30;;;12.85;;
79308;SDS011;68767;53.078;7.386;2023-08-06T05:49:08;24.83;;;13.82;;
79308;SDS011;68767;53.078;7.386;2023-08-06T05:51:34;26.35;;;12.70;;
79308;SDS011;68767;53.078;7.386;2023-08-06T05:54:01;23.52;;;12.77;;
79308;SDS011;68767;53.078;7.386;2023-08-06T05:56:28;29.98;;;14.07;;
79308;SDS011;68767;53.078;7.386;2023-08-06T05:58:55;30.00;;;13.52;;
79308;SDS011;68767;53.078;7.386;2023-08-06T06:01:22;22.15;;;13.32;;
79308;SDS011;68767;53.078;7.386;2023-08-06T06:03:49;25.25;;;14.35;;
79308;SDS011;68767;53.078;7.386;2023-08-06T06:06:16;22.52;;;12.85;;
79308;SDS011;68767;53.078;7.386;2023-08-06T06:08:44;21.55;;;12.93;;
79308;SDS011;68767;53.078;7.386;2023-08-06T06:11:11;21.90;;;13.85;;
79308;SDS011;68767;53.078;7.386;2023-08-06T06:13:38;22.88;;;11.20;;
79308;SDS011;68767;53.078;7.386;2023-08-06T06:16:05;18.38;;;11.10;;
79308;SDS011;68767;53.078;7.386;2023-08-06T06:18:32;17.10;;;11.07;;
79308;SDS011;68767;53.078;7.386;2023-08-06T06:20:59;17.45;;;11.10;;
79308;SDS011;68767;53.078;7.386;2023-08-06T06:23:26;18.90;;;10.00;;
79308;SDS011;68767;53.078;7.386;2023-08-06T06:25:53;17.08;;;10.68;;
79308;SDS011;68767;53.078;7.386;2023-08-06T06:28:19;16.75;;;10.10;;
79308;SDS011;68767;53.078;7.386;2023-08-06T06:30:47;15.32;;;9.80;;
79308;SDS011;68767;53.078;7.386;2023-08-06T06:33:14;17.65;;;10.15;;
79308;SDS011;68767;53.078;7.386;2023-08-06T06:35:41;16.80;;;10.95;;
79308;SDS011;68767;53.078;7.386;2023-08-06T06:38:08;17.63;;;10.25;;
79308;SDS011;68767;53.078;7.386;2023-08-06T06:40:35;17.35;;;10.45;;
79308;SDS011;68767;53.078;7.386;2023-08-06T06:43:03;18.17;;;9.48;;
79308;SDS011;68767;53.078;7.386;2023-08-06T06:45:30;15.55;;;9.60;;
79308;SDS011;68767;53.078;7.386;2023-08-06T06:47:57;17.95;;;10.00;;
79308;SDS011;68767;53.078;7.386;2023-08-06T06:50:24;15.13;;;8.90;;
79308;SDS011;68767;53.078;7.386;2023-08-06T06:52:51;18.33;;;10.02;;
79308;SDS011;68767;53.078;7.386;2023-08-06T06:55:18;18.70;;;11.75;;
79308;SDS011;68767;53.078;7.386;2023-08-06T06:57:45;15.32;;;9.10;;
79308;SDS011;68767;53.078;7.386;2023-08-06T07:00:12;16.25;;;8.95;;
79308;SDS011;68767;53.078;7.386;2023-08-06T07:02:40;18.52;;;10.98;;
79308;SDS011;68767;53.078;7.386;2023-08-06T07:05:07;15.68;;;10.20;;
79308;SDS011;68767;53.078;7.386;2023-08-06T07:07:34;14.82;;;9.18;;
79308;SDS011;68767;53.078;7.386;2023-08-06T07:10:01;14.57;;;9.23;;
79308;SDS011;68767;53.078;7.386;2023-08-06T07:12:29;13.93;;;9.20;;
79308;SDS011;68767;53.078;7.386;2023-08-06T07:14:55;15.82;;;9.90;;
79308;SDS011;68767;53.078;7.386;2023-08-06T07:17:23;19.83;;;10.25;;
79308;SDS011;68767;53.078;7.386;2023-08-06T07:19:50;17.17;;;9.52;;
79308;SDS011;68767;53.078;7.386;2023-08-06T07:22:16;14.93;;;9.30;;
79308;SDS011;68767;53.078;7.386;2023-08-06T07:24:43;12.90;;;8.27;;
79308;SDS011;68767;53.078;7.386;2023-08-06T07:27:10;15.18;;;9.27;;
79308;SDS011;68767;53.078;7.386;2023-08-06T07:29:37;13.80;;;9.25;;
79308;SDS011;68767;53.078;7.386;2023-08-06T07:32:06;16.67;;;9.63;;
79308;SDS011;68767;53.078;7.386;2023-08-06T07:34:33;13.30;;;8.77;;
79308;SDS011;68767;53.078;7.386;2023-08-06T07:37:00;15.27;;;8.57;;
79308;SDS011;68767;53.078;7.386;2023-08-06T07:39:27;11.35;;;7.70;;
79308;SDS011;68767;53.078;7.386;2023-08-06T07:41:55;12.23;;;7.63;;
79308;SDS011;68767;53.078;7.386;2023-08-06T07:44:22;12.35;;;8.02;;
79308;SDS011;68767;53.078;7.386;2023-08-06T07:46:50;12.73;;;8.35;;
79308;SDS011;68767;53.078;7.386;2023-08-06T07:49:17;12.90;;;8.13;;
79308;SDS011;68767;53.078;7.386;2023-08-06T07:51:44;14.13;;;8.82;;
79308;SDS011;68767;53.078;7.386;2023-08-06T07:54:11;12.65;;;8.30;;
79308;SDS011;68767;53.078;7.386;2023-08-06T07:56:41;14.55;;;8.57;;
79308;SDS011;68767;53.078;7.386;2023-08-06T07:59:08;13.00;;;8.07;;
79308;SDS011;68767;53.078;7.386;2023-08-06T08:01:35;13.63;;;8.02;;
79308;SDS011;68767;53.078;7.386;2023-08-06T08:04:02;11.40;;;7.07;;
79308;SDS011;68767;53.078;7.386;2023-08-06T08:06:31;12.60;;;6.78;;
79308;SDS011;68767;53.078;7.386;2023-08-06T08:08:58;12.10;;;7.60;;
79308;SDS011;68767;53.078;7.386;2023-08-06T08:11:25;10.60;;;6.28;;
79308;SDS011;68767;53.078;7.386;2023-08-06T08:13:53;13.48;;;7.50;;
79308;SDS011;68767;53.078;7.386;2023-08-06T08:16:20;11.40;;;7.32;;
79308;SDS011;68767;53.078;7.386;2023-08-06T08:18:46;9.40;;;6.15;;
79308;SDS011;68767;53.078;7.386;2023-08-06T08:21:13;9.70;;;6.25;;
79308;SDS011;68767;53.078;7.386;2023-08-06T08:23:40;11.63;;;6.03;;
79308;SDS011;68767;53.078;7.386;2023-08-06T08:26:08;9.57;;;6.15;;
79308;SDS011;68767;53.078;7.386;2023-08-06T08:28:35;9.63;;;6.40;;
79308;SDS011;68767;53.078;7.386;2023-08-06T08:31:02;7.03;;;4.90;;
79308;SDS011;68767;53.078;7.386;2023-08-06T08:33:29;10.82;;;5.70;;
79308;SDS011;68767;53.078;7.386;2023-08-06T08:35:56;8.73;;;5.63;;
79308;SDS011;68767;53.078;7.386;2023-08-06T08:38:23;10.52;;;5.65;;
79308;SDS011;68767;53.078;7.386;2023-08-06T08:40:51;8.85;;;5.43;;
79308;SDS011;68767;53.078;7.386;2023-08-06T08:43:23;11.00;;;6.75;;
79308;SDS011;68767;53.078;7.386;2023-08-06T08:45:51;8.38;;;5.40;;
79308;SDS011;68767;53.078;7.386;2023-08-06T08:48:19;9.18;;;6.15;;
79308;SDS011;68767;53.078;7.386;2023-08-06T08:50:47;11.35;;;6.45;;
79308;SDS011;68767;53.078;7.386;2023-08-06T08:53:15;10.05;;;6.45;;
79308;SDS011;68767;53.078;7.386;2023-08-06T08:55:47;9.77;;;6.30;;
79308;SDS011;68767;53.078;7.386;2023-08-06T08:58:15;10.23;;;6.55;;
79308;SDS011;68767;53.078;7.386;2023-08-06T09:00:42;10.43;;;5.68;;
79308;SDS011;68767;53.078;7.386;2023-08-06T09:03:17;11.95;;;7.93;;
79308;SDS011;68767;53.078;7.386;2023-08-06T09:05:45;13.30;;;6.25;;
79308;SDS011;68767;53.078;7.386;2023-08-06T09:08:27;7.32;;;5.38;;
79308;SDS011;68767;53.078;7.386;2023-08-06T09:10:58;10.43;;;5.63;;
79308;SDS011;68767;53.078;7.386;2023-08-06T09:13:28;13.10;;;5.15;;
79308;SDS011;68767;53.078;7.386;2023-08-06T09:15:55;6.78;;;4.78;;
79308;SDS011;68767;53.078;7.386;2023-08-06T09:18:26;8.55;;;5.50;;
79308;SDS011;68767;53.078;7.386;2023-08-06T09:20:56;9.88;;;5.22;;
79308;SDS011;68767;53.078;7.386;2023-08-06T09:23:27;9.05;;;4.60;;
79308;SDS011;68767;53.078;7.386;2023-08-06T09:25:59;8.10;;;5.35;;
79308;SDS011;68767;53.078;7.386;2023-08-06T09:28:36;7.43;;;4.65;;
79308;SDS011;68767;53.078;7.386;2023-08-06T09:31:09;7.50;;;4.53;;
79308;SDS011;68767;53.078;7.386;2023-08-06T09:33:37;5.70;;;3.78;;
79308;SDS011;68767;53.078;7.386;2023-08-06T09:36:11;8.38;;;4.13;;
79308;SDS011;68767;53.078;7.386;2023-08-06T09:38:38;5.30;;;3.05;;
79308;SDS011;68767;53.078;7.386;2023-08-06T09:41:09;4.90;;;3.00;;
79308;SDS011;68767;53.078;7.386;2023-08-06T09:43:42;5.55;;;3.42;;
79308;SDS011;68767;53.078;7.386;2023-08-06T09:46:13;6.63;;;3.45;;
79308;SDS011;68767;53.078;7.386;2023-08-06T09:48:46;5.63;;;2.90;;
79308;SDS011;68767;53.078;7.386;2023-08-06T09:51:13;6.07;;;3.30;;
79308;SDS011;68767;53.078;7.386;2023-08-06T09:53:41;5.43;;;3.55;;
79308;SDS011;68767;53.078;7.386;2023-08-06T09:56:09;5.57;;;3.15;;
79308;SDS011;68767;53.078;7.386;2023-08-06T09:58:38;4.57;;;3.20;;
79308;SDS011;68767;53.078;7.386;2023-08-06T10:01:06;7.47;;;3.40;;
79308;SDS011;68767;53.078;7.386;2023-08-06T10:03:33;6.05;;;3.08;;
79308;SDS011;68767;53.078;7.386;2023-08-06T10:06:00;6.40;;;3.00;;
79308;SDS011;68767;53.078;7.386;2023-08-06T10:08:32;4.93;;;2.50;;
79308;SDS011;68767;53.078;7.386;2023-08-06T10:10:59;5.15;;;3.38;;
79308;SDS011;68767;53.078;7.386;2023-08-06T10:13:31;7.35;;;3.25;;
79308;SDS011;68767;53.078;7.386;2023-08-06T10:16:00;5.28;;;3.13;;
79308;SDS011;68767;53.078;7.386;2023-08-06T10:18:32;5.90;;;3.72;;
79308;SDS011;68767;53.078;7.386;2023-08-06T10:21:00;6.22;;;3.33;;
79308;SDS011;68767;53.078;7.386;2023-08-06T10:23:33;6.25;;;3.45;;
79308;SDS011;68767;53.078;7.386;2023-08-06T10:26:04;8.27;;;3.10;;
79308;SDS011;68767;53.078;7.386;2023-08-06T10:28:35;6.57;;;3.22;;
79308;SDS011;68767;53.078;7.386;2023-08-06T10:31:06;4.82;;;3.00;;
79308;SDS011;68767;53.078;7.386;2023-08-06T10:33:42;5.50;;;3.13;;
79308;SDS011;68767;53.078;7.386;2023-08-06T10:36:12;5.20;;;2.70;;
79308;SDS011;68767;53.078;7.386;2023-08-06T10:38:44;6.10;;;2.47;;
79308;SDS011;68767;53.078;7.386;2023-08-06T10:41:23;5.32;;;2.58;;
79308;SDS011;68767;53.078;7.386;2023-08-06T10:44:08;4.00;;;2.47;;
79308;SDS011;68767;53.078;7.386;2023-08-06T10:46:37;3.83;;;2.22;;
79308;SDS011;68767;53.078;7.386;2023-08-06T10:49:04;4.65;;;2.63;;
79308;SDS011;68767;53.078;7.386;2023-08-06T10:51:31;4.60;;;2.30;;
79308;SDS011;68767;53.078;7.386;2023-08-06T10:53:58;4.50;;;2.30;;
79308;SDS011;68767;53.078;7.386;2023-08-06T10:56:25;4.60;;;2.22;;
79308;SDS011;68767;53.078;7.386;2023-08-06T10:58:55;4.53;;;2.40;;
79308;SDS011;68767;53.078;7.386;2023-08-06T11:01:23;5.60;;;2.28;;
79308;SDS011;68767;53.078;7.386;2023-08-06T11:03:51;7.38;;;2.50;;
79308;SDS011;68767;53.078;7.386;2023-08-06T11:06:20;4.97;;;2.10;;
79308;SDS011;68767;53.078;7.386;2023-08-06T11:08:49;3.70;;;2.20;;
79308;SDS011;68767;53.078;7.386;2023-08-06T11:11:17;3.63;;;2.00;;
79308;SDS011;68767;53.078;7.386;2023-08-06T11:13:45;4.28;;;2.33;;
79308;SDS011;68767;53.078;7.386;2023-08-06T11:16:17;4.82;;;2.13;;
79308;SDS011;68767;53.078;7.386;2023-08-06T11:18:45;5.47;;;1.90;;
79308;SDS011;68767;53.078;7.386;2023-08-06T11:21:14;4.82;;;1.90;;
79308;SDS011;68767;53.078;7.386;2023-08-06T11:23:47;5.07;;;2.20;;
79308;SDS011;68767;53.078;7.386;2023-08-06T11:26:18;4.13;;;2.20;;
79308;SDS011;68767;53.078;7.386;2023-08-06T11:28:50;5.78;;;2.30;;
79308;SDS011;68767;53.078;7.386;2023-08-06T11:31:23;3.55;;;2.10;;
79308;SDS011;68767;53.078;7.386;2023-08-06T11:33:51;3.65;;;2.20;;
79308;SDS011;68767;53.078;7.386;2023-08-06T11:36:34;5.28;;;2.33;;
79308;SDS011;68767;53.078;7.386;2023-08-06T11:39:06;4.78;;;2.38;;
79308;SDS011;68767;53.078;7.386;2023-08-06T11:41:33;5.70;;;2.47;;
79308;SDS011;68767;53.078;7.386;2023-08-06T11:44:00;5.60;;;2.10;;
79308;SDS011;68767;53.078;7.386;2023-08-06T11:46:28;4.75;;;2.22;;
79308;SDS011;68767;53.078;7.386;2023-08-06T11:48:55;4.22;;;2.30;;
79308;SDS011;68767;53.078;7.386;2023-08-06T11:51:23;4.68;;;2.33;;
79308;SDS011;68767;53.078;7.386;2023-08-06T11:53:55;7.10;;;2.13;;
79308;SDS011;68767;53.078;7.386;2023-08-06T11:56:26;4.07;;;1.92;;
79308;SDS011;68767;53.078;7.386;2023-08-06T11:58:54;3.53;;;2.05;;
79308;SDS011;68767;53.078;7.386;2023-08-06T12:01:21;5.47;;;1.90;;
79308;SDS011;68767;53.078;7.386;2023-08-06T12:03:48;2.90;;;1.70;;
79308;SDS011;68767;53.078;7.386;2023-08-06T12:06:19;5.82;;;2.13;;
79308;SDS011;68767;53.078;7.386;2023-08-06T12:08:46;3.85;;;1.92;;
79308;SDS011;68767;53.078;7.386;2023-08-06T12:11:14;4.40;;;1.88;;
79308;SDS011;68767;53.078;7.386;2023-08-06T12:13:41;4.00;;;1.88;;
79308;SDS011;68767;53.078;7.386;2023-08-06T12:16:08;3.90;;;1.85;;
79308;SDS011;68767;53.078;7.386;2023-08-06T12:18:35;4.18;;;1.73;;
79308;SDS011;68767;53.078;7.386;2023-08-06T12:21:02;3.85;;;1.73;;
79308;SDS011;68767;53.078;7.386;2023-08-06T12:23:29;3.60;;;1.90;;
79308;SDS011;68767;53.078;7.386;2023-08-06T12:25:56;4.82;;;2.28;;
79308;SDS011;68767;53.078;7.386;2023-08-06T12:28:25;4.07;;;1.77;;
79308;SDS011;68767;53.078;7.386;2023-08-06T12:30:51;4.32;;;2.00;;
79308;SDS011;68767;53.078;7.386;2023-08-06T12:33:21;4.13;;;2.08;;
79308;SDS011;68767;53.078;7.386;2023-08-06T12:35:48;3.78;;;2.17;;
79308;SDS011;68767;53.078;7.386;2023-08-06T12:38:16;3.20;;;1.67;;
79308;SDS011;68767;53.078;7.386;2023-08-06T12:40:43;4.00;;;2.13;;
79308;SDS011;68767;53.078;7.386;2023-08-06T12:43:13;3.33;;;1.60;;
79308;SDS011;68767;53.078;7.386;2023-08-06T12:45:40;3.58;;;1.88;;
79308;SDS011;68767;53.078;7.386;2023-08-06T12:48:07;6.30;;;2.03;;
79308;SDS011;68767;53.078;7.386;2023-08-06T12:50:34;3.83;;;1.90;;
79308;SDS011;68767;53.078;7.386;2023-08-06T12:53:01;3.80;;;2.10;;
79308;SDS011;68767;53.078;7.386;2023-08-06T12:55:28;4.85;;;2.25;;
79308;SDS011;68767;53.078;7.386;2023-08-06T12:57:58;6.13;;;2.05;;
79308;SDS011;68767;53.078;7.386;2023-08-06T13:00:26;8.00;;;2.20;;
79308;SDS011;68767;53.078;7.386;2023-08-06T13:02:53;5.15;;;2.15;;
79308;SDS011;68767;53.078;7.386;2023-08-06T13:05:20;4.78;;;1.98;;
79308;SDS011;68767;53.078;7.386;2023-08-06T13:07:47;4.78;;;2.38;;
79308;SDS011;68767;53.078;7.386;2023-08-06T13:10:14;4.45;;;2.00;;
79308;SDS011;68767;53.078;7.386;2023-08-06T13:12:42;6.53;;;2.08;;
79308;SDS011;68767;53.078;7.386;2023-08-06T13:15:10;5.68;;;2.22;;
79308;SDS011;68767;53.078;7.386;2023-08-06T13:17:37;4.72;;;2.20;;
79308;SDS011;68767;53.078;7.386;2023-08-06T13:20:04;4.97;;;2.00;;
79308;SDS011;68767;53.078;7.386;2023-08-06T13:22:32;6.50;;;3.47;;
79308;SDS011;68767;53.078;7.386;2023-08-06T13:24:59;6.72;;;2.70;;
79308;SDS011;68767;53.078;7.386;2023-08-06T13:27:26;5.53;;;2.10;;
79308;SDS011;68767;53.078;7.386;2023-08-06T13:29:53;5.80;;;2.63;;
79308;SDS011;68767;53.078;7.386;2023-08-06T13:32:20;4.50;;;2.15;;
79308;SDS011;68767;53.078;7.386;2023-08-06T13:34:47;4.07;;;1.80;;
79308;SDS011;68767;53.078;7.386;2023-08-06T13:37:14;3.55;;;2.00;;
79308;SDS011;68767;53.078;7.386;2023-08-06T13:39:41;5.70;;;2.20;;
79308;SDS011;68767;53.078;7.386;2023-08-06T13:42:08;3.22;;;2.00;;
79308;SDS011;68767;53.078;7.386;2023-08-06T13:44:35;3.33;;;1.80;;
79308;SDS011;68767;53.078;7.386;2023-08-06T13:47:03;3.97;;;1.80;;
79308;SDS011;68767;53.078;7.386;2023-08-06T13:49:32;3.53;;;1.90;;
79308;SDS011;68767;53.078;7.386;2023-08-06T13:51:59;4.18;;;1.80;;
79308;SDS011;68767;53.078;7.386;2023-08-06T13:54:45;5.57;;;2.17;;
79308;SDS011;68767;53.078;7.386;2023-08-06T13:57:12;3.47;;;1.95;;
79308;SDS011;68767;53.078;7.386;2023-08-06T13:59:38;5.03;;;2.40;;
79308;SDS011;68767;53.078;7.386;2023-08-06T14:02:05;4.68;;;2.30;;
79308;SDS011;68767;53.078;7.386;2023-08-06T14:04:32;2.97;;;1.65;;
79308;SDS011;68767;53.078;7.386;2023-08-06T14:07:01;5.90;;;2.33;;
79308;SDS011;68767;53.078;7.386;2023-08-06T14:09:27;2.97;;;1.92;;
79308;SDS011;68767;53.078;7.386;2023-08-06T14:11:56;5.10;;;1.92;;
79308;SDS011;68767;53.078;7.386;2023-08-06T14:14:23;5.28;;;2.15;;
79308;SDS011;68767;53.078;7.386;2023-08-06T14:16:53;4.10;;;2.00;;
79308;SDS011;68767;53.078;7.386;2023-08-06T14:19:24;3.70;;;1.90;;
79308;SDS011;68767;53.078;7.386;2023-08-06T14:21:51;3.53;;;2.00;;
79308;SDS011;68767;53.078;7.386;2023-08-06T14:24:18;4.22;;;1.90;;
79308;SDS011;68767;53.078;7.386;2023-08-06T14:26:45;5.45;;;1.92;;
79308;SDS011;68767;53.078;7.386;2023-08-06T14:29:12;4.30;;;1.90;;
79308;SDS011;68767;53.078;7.386;2023-08-06T14:31:43;3.95;;;1.88;;
79308;SDS011;68767;53.078;7.386;2023-08-06T14:34:10;3.83;;;2.08;;
79308;SDS011;68767;53.078;7.386;2023-08-06T14:36:37;6.85;;;2.05;;
79308;SDS011;68767;53.078;7.386;2023-08-06T14:39:04;3.22;;;1.90;;
79308;SDS011;68767;53.078;7.386;2023-08-06T14:41:31;4.00;;;2.20;;
79308;SDS011;68767;53.078;7.386;2023-08-06T14:43:58;3.60;;;1.98;;
79308;SDS011;68767;53.078;7.386;2023-08-06T14:46:25;4.03;;;2.17;;